createdAt,value
2022-12-12T00:05:54.844Z,27.90
2022-12-12T00:16:02.329Z,30.30
2022-12-12T00:26:09.589Z,31.50
2022-12-12T00:36:17.735Z,20.00
2022-12-12T00:46:27.460Z,22.90
2022-12-12T00:56:34.766Z,17.60
2022-12-12T01:06:42.328Z,18.80
2022-12-12T01:16:49.296Z,18.30
2022-12-12T01:26:57.415Z,17.50
2022-12-12T01:37:04.328Z,17.80
2022-12-12T01:47:13.387Z,19.40
2022-12-12T01:57:22.311Z,37.10
2022-12-12T02:07:30.180Z,25.40
2022-12-12T02:17:52.322Z,19.40
2022-12-12T02:28:22.221Z,26.90
2022-12-12T02:38:28.622Z,17.00
2022-12-12T02:48:42.276Z,20.10
2022-12-12T02:58:48.696Z,19.60
2022-12-12T03:08:56.019Z,18.70
2022-12-12T03:19:01.490Z,17.70
2022-12-12T03:29:06.044Z,20.00
2022-12-12T03:39:19.924Z,20.70
2022-12-12T03:49:24.919Z,15.70
2022-12-12T03:59:30.617Z,19.60
2022-12-12T04:09:54.868Z,25.20
2022-12-12T04:20:21.282Z,23.10
2022-12-12T04:30:29.237Z,23.70
2022-12-12T04:40:39.793Z,24.10
2022-12-12T04:50:49.458Z,19.30
2022-12-12T05:01:04.548Z,23.90
2022-12-12T05:11:12.791Z,24.00
2022-12-12T05:21:20.421Z,24.80
2022-12-12T05:31:27.640Z,26.60
2022-12-12T05:41:35.193Z,19.60
2022-12-12T05:51:42.147Z,19.70
2022-12-12T06:01:49.407Z,19.70
2022-12-12T06:11:56.799Z,20.90
2022-12-12T06:22:03.896Z,18.50
2022-12-12T06:32:11.173Z,22.70
2022-12-12T06:42:18.243Z,21.10
2022-12-12T06:52:25.507Z,21.60
2022-12-12T07:02:32.788Z,21.50
2022-12-12T07:12:40.195Z,27.60
2022-12-12T07:22:47.415Z,31.90
2022-12-12T07:32:53.819Z,25.30
2022-12-12T07:43:02.071Z,31.70
2022-12-12T07:53:07.849Z,32.10
2022-12-12T08:03:14.875Z,23.40
2022-12-12T08:13:22.073Z,24.10
2022-12-12T08:23:29.285Z,23.10
2022-12-12T08:33:36.939Z,25.20
2022-12-12T08:43:45.440Z,24.30
2022-12-12T08:53:54.037Z,17.30
2022-12-12T09:04:01.484Z,22.20
2022-12-12T09:14:08.647Z,22.60
2022-12-12T09:24:15.902Z,22.30
2022-12-12T09:34:23.094Z,19.60
2022-12-12T09:44:30.441Z,17.30
2022-12-12T09:54:37.569Z,18.80
2022-12-12T10:04:55.414Z,20.10
2022-12-12T10:15:05.366Z,24.20
2022-12-12T10:25:16.082Z,20.00
2022-12-12T10:35:26.930Z,17.10
2022-12-12T10:45:40.652Z,17.90
2022-12-12T10:55:49.646Z,21.30
2022-12-12T11:05:58.991Z,22.10
2022-12-12T11:16:14.996Z,19.50
2022-12-12T11:26:23.061Z,14.70
2022-12-12T11:36:29.951Z,18.80
2022-12-12T11:46:37.186Z,22.30
2022-12-12T11:56:46.501Z,18.20
2022-12-12T12:06:57.924Z,15.90
2022-12-12T12:17:02.097Z,15.70
2022-12-12T12:27:07.853Z,18.30
2022-12-12T12:37:23.140Z,20.90
2022-12-12T12:47:34.760Z,21.80
2022-12-12T12:57:44.519Z,17.90
2022-12-12T13:07:49.645Z,17.40
2022-12-12T13:17:55.786Z,16.70
2022-12-12T13:28:08.651Z,20.80
2022-12-12T13:38:18.497Z,22.80
2022-12-12T13:48:46.868Z,21.70
2022-12-12T13:58:54.531Z,20.40
2022-12-12T14:09:02.315Z,26.40
2022-12-12T14:19:08.045Z,20.50
2022-12-12T14:29:28.484Z,21.50
2022-12-12T14:39:50.352Z,20.30
2022-12-12T14:50:09.273Z,18.50
2022-12-12T15:00:21.211Z,16.00
2022-12-12T15:10:28.515Z,17.20
2022-12-12T15:20:36.621Z,16.90
2022-12-12T15:30:48.193Z,15.30
2022-12-12T15:40:58.403Z,14.00
2022-12-12T15:51:08.019Z,13.20
2022-12-12T16:01:21.155Z,16.70
2022-12-12T16:11:41.048Z,16.70
2022-12-12T16:21:47.317Z,14.40
2022-12-12T16:31:56.213Z,12.60
2022-12-12T16:42:03.372Z,12.30
2022-12-12T16:52:10.416Z,16.30
2022-12-12T17:02:23.257Z,16.20
2022-12-12T17:12:30.306Z,12.30
2022-12-12T17:22:37.570Z,15.70
2022-12-12T17:43:06.454Z,16.60
2022-12-12T17:53:12.328Z,13.90
2022-12-12T18:03:19.657Z,11.70
2022-12-12T18:13:27.325Z,12.90
2022-12-12T18:23:35.356Z,12.20
2022-12-12T18:33:42.690Z,13.40
2022-12-12T18:43:50.153Z,19.00
2022-12-12T18:54:01.640Z,20.20
2022-12-12T19:04:13.413Z,13.80
2022-12-12T19:14:22.593Z,15.00
2022-12-12T19:24:29.913Z,11.90
2022-12-12T19:34:37.144Z,18.00
2022-12-12T19:44:44.271Z,14.10
2022-12-12T19:54:51.461Z,13.50
2022-12-12T20:04:58.562Z,12.90
2022-12-12T20:15:05.148Z,13.40
2022-12-12T20:25:12.837Z,12.50
2022-12-12T20:35:18.948Z,8.60
2022-12-12T20:45:25.974Z,8.20
2022-12-12T20:55:36.274Z,10.80
2022-12-12T21:05:43.350Z,12.40
2022-12-12T21:15:50.555Z,12.00
2022-12-12T21:25:57.932Z,9.90
2022-12-12T21:36:04.645Z,8.60
2022-12-12T21:46:14.621Z,18.00
2022-12-12T21:56:22.576Z,11.60
2022-12-12T22:06:31.089Z,22.70
2022-12-12T22:16:38.204Z,10.30
2022-12-12T22:26:47.567Z,10.20
2022-12-12T22:47:00.574Z,14.90
2022-12-12T22:57:06.700Z,11.10
2022-12-12T23:07:13.955Z,10.20
2022-12-12T23:17:21.187Z,10.10
2022-12-12T23:27:28.347Z,17.90
2022-12-12T23:37:35.538Z,12.40
2022-12-12T23:47:45.105Z,9.90
2022-12-12T23:57:52.733Z,9.10
